sensor_id;sensor_type;location;lat;lon;timestamp;P1;durP1;ratioP1;P2;durP2;ratioP2
54454;SDS011;40364;52.270;10.546;2023-12-14T00:00:38;8.73;;;3.83;;
54454;SDS011;40364;52.270;10.546;2023-12-14T00:03:04;8.30;;;3.90;;
54454;SDS011;40364;52.270;10.546;2023-12-14T00:05:31;9.70;;;4.85;;
54454;SDS011;40364;52.270;10.546;2023-12-14T00:07:59;8.93;;;3.90;;
54454;SDS011;40364;52.270;10.546;2023-12-14T00:10:26;7.85;;;3.78;;
54454;SDS011;40364;52.270;10.546;2023-12-14T00:12:52;7.88;;;4.35;;
54454;SDS011;40364;52.270;10.546;2023-12-14T00:15:20;11.73;;;4.10;;
54454;SDS011;40364;52.270;10.546;2023-12-14T00:17:47;10.90;;;4.88;;
54454;SDS011;40364;52.270;10.546;2023-12-14T00:20:14;7.38;;;3.65;;
54454;SDS011;40364;52.270;10.546;2023-12-14T00:22:40;8.38;;;3.85;;
54454;SDS011;40364;52.270;10.546;2023-12-14T00:25:08;7.55;;;3.67;;
54454;SDS011;40364;52.270;10.546;2023-12-14T00:27:35;7.55;;;3.88;;
54454;SDS011;40364;52.270;10.546;2023-12-14T00:30:02;6.63;;;3.58;;
54454;SDS011;40364;52.270;10.546;2023-12-14T00:32:29;8.10;;;4.35;;
54454;SDS011;40364;52.270;10.546;2023-12-14T00:34:55;7.03;;;3.63;;
54454;SDS011;40364;52.270;10.546;2023-12-14T00:37:21;7.65;;;4.03;;
54454;SDS011;40364;52.270;10.546;2023-12-14T00:39:48;10.57;;;5.03;;
54454;SDS011;40364;52.270;10.546;2023-12-14T00:42:16;8.20;;;4.47;;
54454;SDS011;40364;52.270;10.546;2023-12-14T00:44:42;10.13;;;4.43;;
54454;SDS011;40364;52.270;10.546;2023-12-14T00:47:09;7.03;;;3.88;;
54454;SDS011;40364;52.270;10.546;2023-12-14T00:49:46;10.00;;;4.68;;
54454;SDS011;40364;52.270;10.546;2023-12-14T00:52:12;13.48;;;4.90;;
54454;SDS011;40364;52.270;10.546;2023-12-14T00:54:39;8.93;;;4.13;;
54454;SDS011;40364;52.270;10.546;2023-12-14T00:57:05;10.35;;;5.00;;
54454;SDS011;40364;52.270;10.546;2023-12-14T00:59:33;10.50;;;4.05;;
54454;SDS011;40364;52.270;10.546;2023-12-14T01:02:00;11.00;;;4.75;;
54454;SDS011;40364;52.270;10.546;2023-12-14T01:04:26;7.75;;;4.32;;
54454;SDS011;40364;52.270;10.546;2023-12-14T01:06:53;9.30;;;4.15;;
54454;SDS011;40364;52.270;10.546;2023-12-14T01:09:20;9.93;;;4.22;;
54454;SDS011;40364;52.270;10.546;2023-12-14T01:11:46;8.23;;;3.67;;
54454;SDS011;40364;52.270;10.546;2023-12-14T01:14:13;10.18;;;4.63;;
54454;SDS011;40364;52.270;10.546;2023-12-14T01:16:41;8.75;;;4.38;;
54454;SDS011;40364;52.270;10.546;2023-12-14T01:19:08;8.02;;;3.95;;
54454;SDS011;40364;52.270;10.546;2023-12-14T01:21:34;8.57;;;4.55;;
54454;SDS011;40364;52.270;10.546;2023-12-14T01:24:01;12.13;;;4.50;;
54454;SDS011;40364;52.270;10.546;2023-12-14T01:26:27;10.20;;;5.00;;
54454;SDS011;40364;52.270;10.546;2023-12-14T01:28:54;10.68;;;5.05;;
54454;SDS011;40364;52.270;10.546;2023-12-14T01:31:21;9.43;;;4.50;;
54454;SDS011;40364;52.270;10.546;2023-12-14T01:33:50;8.90;;;4.47;;
54454;SDS011;40364;52.270;10.546;2023-12-14T01:36:19;7.57;;;4.38;;
54454;SDS011;40364;52.270;10.546;2023-12-14T01:38:46;11.40;;;5.22;;
54454;SDS011;40364;52.270;10.546;2023-12-14T01:41:13;11.73;;;4.75;;
54454;SDS011;40364;52.270;10.546;2023-12-14T01:43:40;9.10;;;4.68;;
54454;SDS011;40364;52.270;10.546;2023-12-14T01:46:06;8.73;;;4.85;;
54454;SDS011;40364;52.270;10.546;2023-12-14T01:48:33;9.55;;;5.13;;
54454;SDS011;40364;52.270;10.546;2023-12-14T01:51:01;12.13;;;5.55;;
54454;SDS011;40364;52.270;10.546;2023-12-14T01:53:28;10.48;;;4.57;;
54454;SDS011;40364;52.270;10.546;2023-12-14T01:55:55;10.10;;;5.22;;
54454;SDS011;40364;52.270;10.546;2023-12-14T01:58:22;10.90;;;5.00;;
54454;SDS011;40364;52.270;10.546;2023-12-14T02:00:51;11.50;;;5.25;;
54454;SDS011;40364;52.270;10.546;2023-12-14T02:03:23;10.75;;;5.45;;
54454;SDS011;40364;52.270;10.546;2023-12-14T02:05:49;11.65;;;5.20;;
54454;SDS011;40364;52.270;10.546;2023-12-14T02:08:17;7.97;;;4.80;;
54454;SDS011;40364;52.270;10.546;2023-12-14T02:10:44;9.00;;;5.15;;
54454;SDS011;40364;52.270;10.546;2023-12-14T02:13:10;9.20;;;4.93;;
54454;SDS011;40364;52.270;10.546;2023-12-14T02:15:37;10.77;;;4.97;;
54454;SDS011;40364;52.270;10.546;2023-12-14T02:18:04;13.10;;;4.85;;
54454;SDS011;40364;52.270;10.546;2023-12-14T02:20:30;8.23;;;4.90;;
54454;SDS011;40364;52.270;10.546;2023-12-14T02:22:58;10.55;;;4.88;;
54454;SDS011;40364;52.270;10.546;2023-12-14T02:25:26;10.98;;;5.25;;
54454;SDS011;40364;52.270;10.546;2023-12-14T02:27:53;8.20;;;4.55;;
54454;SDS011;40364;52.270;10.546;2023-12-14T02:30:19;10.57;;;4.70;;
54454;SDS011;40364;52.270;10.546;2023-12-14T02:32:45;12.07;;;5.05;;
54454;SDS011;40364;52.270;10.546;2023-12-14T02:35:12;8.18;;;4.28;;
54454;SDS011;40364;52.270;10.546;2023-12-14T02:37:39;7.90;;;4.22;;
54454;SDS011;40364;52.270;10.546;2023-12-14T02:40:08;8.27;;;4.18;;
54454;SDS011;40364;52.270;10.546;2023-12-14T02:42:36;8.85;;;4.40;;
54454;SDS011;40364;52.270;10.546;2023-12-14T02:45:02;7.28;;;3.70;;
54454;SDS011;40364;52.270;10.546;2023-12-14T02:47:30;7.82;;;4.70;;
54454;SDS011;40364;52.270;10.546;2023-12-14T02:49:56;6.65;;;3.78;;
54454;SDS011;40364;52.270;10.546;2023-12-14T02:52:23;7.80;;;4.25;;
54454;SDS011;40364;52.270;10.546;2023-12-14T02:54:50;9.85;;;4.40;;
54454;SDS011;40364;52.270;10.546;2023-12-14T02:57:18;8.82;;;4.18;;
54454;SDS011;40364;52.270;10.546;2023-12-14T02:59:44;7.95;;;4.25;;
54454;SDS011;40364;52.270;10.546;2023-12-14T03:02:11;9.52;;;4.80;;
54454;SDS011;40364;52.270;10.546;2023-12-14T03:04:38;8.15;;;3.90;;
54454;SDS011;40364;52.270;10.546;2023-12-14T03:07:05;7.28;;;3.90;;
54454;SDS011;40364;52.270;10.546;2023-12-14T03:09:32;7.75;;;3.30;;
54454;SDS011;40364;52.270;10.546;2023-12-14T03:11:59;6.53;;;3.65;;
54454;SDS011;40364;52.270;10.546;2023-12-14T03:14:31;6.95;;;3.10;;
54454;SDS011;40364;52.270;10.546;2023-12-14T03:16:58;4.28;;;3.00;;
54454;SDS011;40364;52.270;10.546;2023-12-14T03:19:25;6.82;;;4.15;;
54454;SDS011;40364;52.270;10.546;2023-12-14T03:21:51;6.95;;;3.75;;
54454;SDS011;40364;52.270;10.546;2023-12-14T03:24:18;8.38;;;3.58;;
54454;SDS011;40364;52.270;10.546;2023-12-14T03:26:44;5.72;;;3.35;;
54454;SDS011;40364;52.270;10.546;2023-12-14T03:29:11;7.10;;;2.55;;
54454;SDS011;40364;52.270;10.546;2023-12-14T03:31:39;5.15;;;3.10;;
54454;SDS011;40364;52.270;10.546;2023-12-14T03:34:06;6.22;;;3.40;;
54454;SDS011;40364;52.270;10.546;2023-12-14T03:36:32;6.47;;;3.53;;
54454;SDS011;40364;52.270;10.546;2023-12-14T03:38:59;5.50;;;3.47;;
54454;SDS011;40364;52.270;10.546;2023-12-14T03:41:26;4.90;;;2.75;;
54454;SDS011;40364;52.270;10.546;2023-12-14T03:43:52;5.68;;;2.92;;
54454;SDS011;40364;52.270;10.546;2023-12-14T03:46:19;4.15;;;2.35;;
54454;SDS011;40364;52.270;10.546;2023-12-14T03:48:47;4.22;;;2.75;;
54454;SDS011;40364;52.270;10.546;2023-12-14T03:51:13;7.97;;;2.40;;
54454;SDS011;40364;52.270;10.546;2023-12-14T03:53:44;8.27;;;3.13;;
54454;SDS011;40364;52.270;10.546;2023-12-14T03:56:10;4.65;;;2.60;;
54454;SDS011;40364;52.270;10.546;2023-12-14T03:58:37;4.75;;;2.97;;
54454;SDS011;40364;52.270;10.546;2023-12-14T04:01:04;6.72;;;3.10;;
54454;SDS011;40364;52.270;10.546;2023-12-14T04:03:31;5.68;;;2.80;;
54454;SDS011;40364;52.270;10.546;2023-12-14T04:05:59;4.75;;;2.65;;
54454;SDS011;40364;52.270;10.546;2023-12-14T04:08:26;6.75;;;3.05;;
54454;SDS011;40364;52.270;10.546;2023-12-14T04:10:52;4.20;;;2.85;;
54454;SDS011;40364;52.270;10.546;2023-12-14T04:13:19;5.00;;;2.95;;
54454;SDS011;40364;52.270;10.546;2023-12-14T04:15:46;6.38;;;3.40;;
54454;SDS011;40364;52.270;10.546;2023-12-14T04:18:12;5.63;;;2.70;;
54454;SDS011;40364;52.270;10.546;2023-12-14T04:20:39;5.25;;;3.03;;
54454;SDS011;40364;52.270;10.546;2023-12-14T04:23:07;6.88;;;3.30;;
54454;SDS011;40364;52.270;10.546;2023-12-14T04:25:34;4.97;;;2.90;;
54454;SDS011;40364;52.270;10.546;2023-12-14T04:28:00;5.72;;;3.42;;
54454;SDS011;40364;52.270;10.546;2023-12-14T04:30:27;5.18;;;3.10;;
54454;SDS011;40364;52.270;10.546;2023-12-14T04:32:53;5.88;;;3.45;;
54454;SDS011;40364;52.270;10.546;2023-12-14T04:35:20;7.70;;;3.83;;
54454;SDS011;40364;52.270;10.546;2023-12-14T04:37:47;8.75;;;3.53;;
54454;SDS011;40364;52.270;10.546;2023-12-14T04:40:15;6.60;;;3.65;;
54454;SDS011;40364;52.270;10.546;2023-12-14T04:42:42;4.97;;;3.30;;
54454;SDS011;40364;52.270;10.546;2023-12-14T04:45:09;8.60;;;3.67;;
54454;SDS011;40364;52.270;10.546;2023-12-14T04:47:35;6.30;;;3.78;;
54454;SDS011;40364;52.270;10.546;2023-12-14T04:50:02;6.40;;;3.35;;
54454;SDS011;40364;52.270;10.546;2023-12-14T04:52:30;4.70;;;3.03;;
54454;SDS011;40364;52.270;10.546;2023-12-14T04:54:56;5.80;;;3.58;;
54454;SDS011;40364;52.270;10.546;2023-12-14T04:57:24;7.32;;;3.45;;
54454;SDS011;40364;52.270;10.546;2023-12-14T04:59:51;7.18;;;3.20;;
54454;SDS011;40364;52.270;10.546;2023-12-14T05:02:17;5.93;;;3.33;;
54454;SDS011;40364;52.270;10.546;2023-12-14T05:04:44;5.53;;;3.42;;
54454;SDS011;40364;52.270;10.546;2023-12-14T05:07:11;6.22;;;3.67;;
54454;SDS011;40364;52.270;10.546;2023-12-14T05:09:37;6.20;;;3.25;;
54454;SDS011;40364;52.270;10.546;2023-12-14T05:12:04;6.88;;;3.58;;
54454;SDS011;40364;52.270;10.546;2023-12-14T05:14:32;6.28;;;3.45;;
54454;SDS011;40364;52.270;10.546;2023-12-14T05:16:59;5.45;;;3.25;;
54454;SDS011;40364;52.270;10.546;2023-12-14T05:19:26;10.63;;;3.78;;
54454;SDS011;40364;52.270;10.546;2023-12-14T05:21:52;5.35;;;3.47;;
54454;SDS011;40364;52.270;10.546;2023-12-14T05:24:19;5.85;;;3.10;;
54454;SDS011;40364;52.270;10.546;2023-12-14T05:26:46;7.95;;;4.03;;
54454;SDS011;40364;52.270;10.546;2023-12-14T05:29:12;8.02;;;3.90;;
54454;SDS011;40364;52.270;10.546;2023-12-14T05:31:40;6.28;;;3.60;;
54454;SDS011;40364;52.270;10.546;2023-12-14T05:34:07;6.90;;;4.13;;
54454;SDS011;40364;52.270;10.546;2023-12-14T05:36:34;7.68;;;4.45;;
54454;SDS011;40364;52.270;10.546;2023-12-14T05:39:00;6.80;;;3.97;;
54454;SDS011;40364;52.270;10.546;2023-12-14T05:41:28;9.95;;;5.57;;
54454;SDS011;40364;52.270;10.546;2023-12-14T05:43:55;12.35;;;6.45;;
54454;SDS011;40364;52.270;10.546;2023-12-14T05:46:22;10.75;;;5.78;;
54454;SDS011;40364;52.270;10.546;2023-12-14T05:48:51;12.70;;;5.68;;
54454;SDS011;40364;52.270;10.546;2023-12-14T05:51:27;14.45;;;6.40;;
54454;SDS011;40364;52.270;10.546;2023-12-14T05:53:54;10.18;;;5.68;;
54454;SDS011;40364;52.270;10.546;2023-12-14T05:56:21;13.07;;;6.47;;
54454;SDS011;40364;52.270;10.546;2023-12-14T05:58:48;10.40;;;5.82;;
54454;SDS011;40364;52.270;10.546;2023-12-14T06:01:16;12.20;;;6.07;;
54454;SDS011;40364;52.270;10.546;2023-12-14T06:03:43;13.80;;;7.10;;
54454;SDS011;40364;52.270;10.546;2023-12-14T06:06:11;10.88;;;5.72;;
54454;SDS011;40364;52.270;10.546;2023-12-14T06:08:39;11.02;;;5.53;;
54454;SDS011;40364;52.270;10.546;2023-12-14T06:11:06;12.85;;;7.10;;
54454;SDS011;40364;52.270;10.546;2023-12-14T06:13:33;14.38;;;6.35;;
54454;SDS011;40364;52.270;10.546;2023-12-14T06:16:00;11.35;;;6.53;;
54454;SDS011;40364;52.270;10.546;2023-12-14T06:18:27;14.60;;;5.97;;
54454;SDS011;40364;52.270;10.546;2023-12-14T06:20:54;16.30;;;6.95;;
54454;SDS011;40364;52.270;10.546;2023-12-14T06:23:22;13.63;;;5.97;;
54454;SDS011;40364;52.270;10.546;2023-12-14T06:25:50;13.68;;;6.65;;
54454;SDS011;40364;52.270;10.546;2023-12-14T06:28:17;12.98;;;7.10;;
54454;SDS011;40364;52.270;10.546;2023-12-14T06:30:43;13.02;;;6.28;;
54454;SDS011;40364;52.270;10.546;2023-12-14T06:33:10;11.80;;;6.03;;
54454;SDS011;40364;52.270;10.546;2023-12-14T06:35:37;11.63;;;6.82;;
54454;SDS011;40364;52.270;10.546;2023-12-14T06:38:04;12.65;;;6.20;;
54454;SDS011;40364;52.270;10.546;2023-12-14T06:40:32;10.60;;;6.13;;
54454;SDS011;40364;52.270;10.546;2023-12-14T06:42:59;13.95;;;6.13;;
54454;SDS011;40364;52.270;10.546;2023-12-14T06:45:25;9.52;;;5.00;;
54454;SDS011;40364;52.270;10.546;2023-12-14T06:47:52;9.77;;;4.60;;
54454;SDS011;40364;52.270;10.546;2023-12-14T06:50:18;10.02;;;5.30;;
54454;SDS011;40364;52.270;10.546;2023-12-14T06:52:45;7.70;;;4.25;;
54454;SDS011;40364;52.270;10.546;2023-12-14T06:55:12;8.40;;;4.78;;
54454;SDS011;40364;52.270;10.546;2023-12-14T06:57:42;8.82;;;5.35;;
54454;SDS011;40364;52.270;10.546;2023-12-14T07:00:09;9.98;;;5.35;;
54454;SDS011;40364;52.270;10.546;2023-12-14T07:02:36;9.82;;;4.82;;
54454;SDS011;40364;52.270;10.546;2023-12-14T07:05:03;8.05;;;4.63;;
54454;SDS011;40364;52.270;10.546;2023-12-14T07:07:30;9.30;;;4.22;;
54454;SDS011;40364;52.270;10.546;2023-12-14T07:09:57;9.00;;;4.80;;
54454;SDS011;40364;52.270;10.546;2023-12-14T07:12:24;10.00;;;5.32;;
54454;SDS011;40364;52.270;10.546;2023-12-14T07:14:52;8.70;;;4.60;;
54454;SDS011;40364;52.270;10.546;2023-12-14T07:19:49;10.60;;;5.18;;
54454;SDS011;40364;52.270;10.546;2023-12-14T07:22:17;9.77;;;5.65;;
54454;SDS011;40364;52.270;10.546;2023-12-14T07:24:44;8.43;;;5.20;;
54454;SDS011;40364;52.270;10.546;2023-12-14T07:27:11;10.55;;;5.43;;
54454;SDS011;40364;52.270;10.546;2023-12-14T07:29:38;11.40;;;5.65;;
54454;SDS011;40364;52.270;10.546;2023-12-14T07:32:07;9.00;;;5.10;;
54454;SDS011;40364;52.270;10.546;2023-12-14T07:34:33;11.80;;;5.18;;
54454;SDS011;40364;52.270;10.546;2023-12-14T07:37:00;10.68;;;5.63;;
54454;SDS011;40364;52.270;10.546;2023-12-14T07:39:27;9.52;;;5.18;;
54454;SDS011;40364;52.270;10.546;2023-12-14T07:41:53;7.38;;;5.03;;
54454;SDS011;40364;52.270;10.546;2023-12-14T07:44:20;10.77;;;4.57;;
54454;SDS011;40364;52.270;10.546;2023-12-14T07:46:47;7.13;;;4.20;;
54454;SDS011;40364;52.270;10.546;2023-12-14T07:49:15;7.38;;;4.22;;
54454;SDS011;40364;52.270;10.546;2023-12-14T07:51:45;8.90;;;4.80;;
54454;SDS011;40364;52.270;10.546;2023-12-14T07:54:12;8.50;;;4.78;;
54454;SDS011;40364;52.270;10.546;2023-12-14T07:56:38;7.15;;;4.30;;
54454;SDS011;40364;52.270;10.546;2023-12-14T07:59:07;8.50;;;5.03;;
54454;SDS011;40364;52.270;10.546;2023-12-14T08:01:35;8.55;;;5.10;;
54454;SDS011;40364;52.270;10.546;2023-12-14T08:04:01;8.80;;;4.88;;
54454;SDS011;40364;52.270;10.546;2023-12-14T08:06:30;8.80;;;4.78;;
54454;SDS011;40364;52.270;10.546;2023-12-14T08:08:56;10.75;;;4.78;;
54454;SDS011;40364;52.270;10.546;2023-12-14T08:11:23;10.07;;;5.00;;
54454;SDS011;40364;52.270;10.546;2023-12-14T08:13:50;10.20;;;5.10;;
54454;SDS011;40364;52.270;10.546;2023-12-14T08:16:16;7.18;;;4.50;;
54454;SDS011;40364;52.270;10.546;2023-12-14T08:18:43;8.52;;;4.72;;
54454;SDS011;40364;52.270;10.546;2023-12-14T08:21:11;10.20;;;5.53;;
54454;SDS011;40364;52.270;10.546;2023-12-14T08:23:39;10.25;;;5.45;;
54454;SDS011;40364;52.270;10.546;2023-12-14T08:26:06;9.95;;;4.90;;
54454;SDS011;40364;52.270;10.546;2023-12-14T08:28:33;12.45;;;5.28;;
54454;SDS011;40364;52.270;10.546;2023-12-14T08:31:00;8.13;;;4.78;;
54454;SDS011;40364;52.270;10.546;2023-12-14T08:33:27;11.30;;;4.75;;
54454;SDS011;40364;52.270;10.546;2023-12-14T08:35:55;8.85;;;4.93;;
54454;SDS011;40364;52.270;10.546;2023-12-14T08:38:22;8.02;;;4.93;;
54454;SDS011;40364;52.270;10.546;2023-12-14T08:40:50;9.07;;;5.22;;
54454;SDS011;40364;52.270;10.546;2023-12-14T08:43:17;14.45;;;5.47;;
54454;SDS011;40364;52.270;10.546;2023-12-14T08:45:44;9.40;;;5.05;;
54454;SDS011;40364;52.270;10.546;2023-12-14T08:48:10;10.98;;;5.05;;
54454;SDS011;40364;52.270;10.546;2023-12-14T08:50:37;8.95;;;4.80;;
54454;SDS011;40364;52.270;10.546;2023-12-14T08:53:04;8.60;;;4.68;;
54454;SDS011;40364;52.270;10.546;2023-12-14T08:55:31;8.77;;;4.38;;
54454;SDS011;40364;52.270;10.546;2023-12-14T08:57:59;8.38;;;4.60;;
54454;SDS011;40364;52.270;10.546;2023-12-14T09:00:25;9.55;;;4.05;;
54454;SDS011;40364;52.270;10.546;2023-12-14T09:02:52;10.15;;;4.70;;
54454;SDS011;40364;52.270;10.546;2023-12-14T09:05:19;8.40;;;4.35;;
54454;SDS011;40364;52.270;10.546;2023-12-14T09:07:47;7.45;;;4.20;;
54454;SDS011;40364;52.270;10.546;2023-12-14T09:10:13;7.20;;;3.72;;
54454;SDS011;40364;52.270;10.546;2023-12-14T09:12:40;6.40;;;4.22;;
54454;SDS011;40364;52.270;10.546;2023-12-14T09:15:08;8.65;;;4.22;;
54454;SDS011;40364;52.270;10.546;2023-12-14T09:17:35;9.35;;;4.00;;
54454;SDS011;40364;52.270;10.546;2023-12-14T09:20:02;7.53;;;4.75;;
54454;SDS011;40364;52.270;10.546;2023-12-14T09:22:30;10.25;;;4.82;;
54454;SDS011;40364;52.270;10.546;2023-12-14T09:24:57;8.50;;;4.55;;
54454;SDS011;40364;52.270;10.546;2023-12-14T09:27:24;11.05;;;5.70;;
54454;SDS011;40364;52.270;10.546;2023-12-14T09:29:50;8.75;;;4.65;;
54454;SDS011;40364;52.270;10.546;2023-12-14T09:32:18;8.75;;;4.75;;
54454;SDS011;40364;52.270;10.546;2023-12-14T09:34:45;8.70;;;4.25;;
54454;SDS011;40364;52.270;10.546;2023-12-14T09:37:12;7.57;;;4.05;;
54454;SDS011;40364;52.270;10.546;2023-12-14T09:39:39;7.72;;;2.92;;
54454;SDS011;40364;52.270;10.546;2023-12-14T09:42:06;8.15;;;4.40;;
54454;SDS011;40364;52.270;10.546;2023-12-14T09:44:33;6.80;;;3.65;;
54454;SDS011;40364;52.270;10.546;2023-12-14T09:47:01;8.07;;;3.97;;
54454;SDS011;40364;52.270;10.546;2023-12-14T09:49:30;10.63;;;3.97;;
54454;SDS011;40364;52.270;10.546;2023-12-14T09:51:57;6.80;;;3.58;;
54454;SDS011;40364;52.270;10.546;2023-12-14T09:54:24;10.38;;;4.18;;
54454;SDS011;40364;52.270;10.546;2023-12-14T09:56:51;6.50;;;3.30;;
54454;SDS011;40364;52.270;10.546;2023-12-14T09:59:18;10.55;;;3.38;;
54454;SDS011;40364;52.270;10.546;2023-12-14T10:01:45;5.95;;;2.97;;
54454;SDS011;40364;52.270;10.546;2023-12-14T10:04:13;7.45;;;3.70;;
54454;SDS011;40364;52.270;10.546;2023-12-14T10:06:43;6.80;;;3.63;;
54454;SDS011;40364;52.270;10.546;2023-12-14T10:09:11;6.50;;;3.33;;
54454;SDS011;40364;52.270;10.546;2023-12-14T10:11:40;9.90;;;4.03;;
54454;SDS011;40364;52.270;10.546;2023-12-14T10:14:17;6.85;;;3.63;;
54454;SDS011;40364;52.270;10.546;2023-12-14T10:16:46;7.18;;;3.10;;
54454;SDS011;40364;52.270;10.546;2023-12-14T10:19:13;6.38;;;3.25;;
54454;SDS011;40364;52.270;10.546;2023-12-14T10:21:40;5.68;;;3.05;;
54454;SDS011;40364;52.270;10.546;2023-12-14T10:24:09;9.35;;;3.83;;
54454;SDS011;40364;52.270;10.546;2023-12-14T10:26:36;7.63;;;3.00;;
54454;SDS011;40364;52.270;10.546;2023-12-14T10:29:02;5.43;;;2.80;;
54454;SDS011;40364;52.270;10.546;2023-12-14T10:31:30;7.93;;;3.13;;
54454;SDS011;40364;52.270;10.546;2023-12-14T10:33:57;7.35;;;3.38;;
54454;SDS011;40364;52.270;10.546;2023-12-14T10:36:24;6.45;;;3.15;;
54454;SDS011;40364;52.270;10.546;2023-12-14T10:38:53;8.30;;;3.35;;
54454;SDS011;40364;52.270;10.546;2023-12-14T10:41:23;5.47;;;2.58;;
54454;SDS011;40364;52.270;10.546;2023-12-14T10:43:51;8.40;;;3.65;;
54454;SDS011;40364;52.270;10.546;2023-12-14T10:46:19;5.45;;;2.67;;
54454;SDS011;40364;52.270;10.546;2023-12-14T10:48:47;6.13;;;3.33;;
54454;SDS011;40364;52.270;10.546;2023-12-14T10:51:15;8.13;;;3.95;;
54454;SDS011;40364;52.270;10.546;2023-12-14T10:53:44;8.60;;;3.28;;
54454;SDS011;40364;52.270;10.546;2023-12-14T10:56:14;9.70;;;3.03;;
54454;SDS011;40364;52.270;10.546;2023-12-14T10:58:46;7.75;;;3.45;;
54454;SDS011;40364;52.270;10.546;2023-12-14T11:01:13;6.65;;;3.55;;
54454;SDS011;40364;52.270;10.546;2023-12-14T11:03:41;5.53;;;3.53;;
54454;SDS011;40364;52.270;10.546;2023-12-14T11:08:58;9.98;;;4.22;;
54454;SDS011;40364;52.270;10.546;2023-12-14T11:11:30;8.63;;;4.13;;
54454;SDS011;40364;52.270;10.546;2023-12-14T11:13:56;6.90;;;3.90;;
54454;SDS011;40364;52.270;10.546;2023-12-14T11:16:23;8.02;;;4.10;;
54454;SDS011;40364;52.270;10.546;2023-12-14T11:21:56;8.35;;;4.43;;
54454;SDS011;40364;52.270;10.546;2023-12-14T11:24:37;9.30;;;5.07;;
54454;SDS011;40364;52.270;10.546;2023-12-14T11:27:08;8.98;;;4.65;;
54454;SDS011;40364;52.270;10.546;2023-12-14T11:29:36;10.25;;;4.78;;
54454;SDS011;40364;52.270;10.546;2023-12-14T11:32:03;9.02;;;4.40;;
54454;SDS011;40364;52.270;10.546;2023-12-14T11:34:31;13.52;;;5.38;;
54454;SDS011;40364;52.270;10.546;2023-12-14T11:36:58;10.32;;;4.72;;
54454;SDS011;40364;52.270;10.546;2023-12-14T11:39:24;10.60;;;4.93;;
54454;SDS011;40364;52.270;10.546;2023-12-14T11:42:00;11.10;;;4.80;;
54454;SDS011;40364;52.270;10.546;2023-12-14T11:44:28;13.02;;;4.85;;
54454;SDS011;40364;52.270;10.546;2023-12-14T11:46:55;11.65;;;4.55;;
54454;SDS011;40364;52.270;10.546;2023-12-14T11:49:23;8.98;;;4.65;;
54454;SDS011;40364;52.270;10.546;2023-12-14T11:51:50;10.27;;;4.88;;
54454;SDS011;40364;52.270;10.546;2023-12-14T11:54:17;9.05;;;4.88;;
54454;SDS011;40364;52.270;10.546;2023-12-14T11:56:45;9.85;;;4.63;;
54454;SDS011;40364;52.270;10.546;2023-12-14T11:59:13;17.33;;;6.22;;
54454;SDS011;40364;52.270;10.546;2023-12-14T12:01:48;8.45;;;4.70;;
54454;SDS011;40364;52.270;10.546;2023-12-14T12:04:20;10.55;;;4.40;;
54454;SDS011;40364;52.270;10.546;2023-12-14T12:06:46;10.10;;;5.82;;
54454;SDS011;40364;52.270;10.546;2023-12-14T12:09:13;15.50;;;4.97;;
54454;SDS011;40364;52.270;10.546;2023-12-14T12:11:40;14.60;;;5.40;;
54454;SDS011;40364;52.270;10.546;2023-12-14T12:14:06;9.57;;;4.88;;
54454;SDS011;40364;52.270;10.546;2023-12-14T12:16:33;9.90;;;4.25;;
54454;SDS011;40364;52.270;10.546;2023-12-14T12:19:02;12.50;;;5.32;;
54454;SDS011;40364;52.270;10.546;2023-12-14T12:21:28;10.27;;;5.47;;
54454;SDS011;40364;52.270;10.546;2023-12-14T12:23:55;14.40;;;5.85;;
54454;SDS011;40364;52.270;10.546;2023-12-14T12:26:22;12.25;;;5.68;;
54454;SDS011;40364;52.270;10.546;2023-12-14T12:28:48;10.95;;;4.32;;
54454;SDS011;40364;52.270;10.546;2023-12-14T12:31:15;13.15;;;5.78;;
54454;SDS011;40364;52.270;10.546;2023-12-14T12:33:42;15.40;;;5.60;;
54454;SDS011;40364;52.270;10.546;2023-12-14T12:36:10;12.70;;;5.57;;
54454;SDS011;40364;52.270;10.546;2023-12-14T12:38:36;12.43;;;5.90;;
54454;SDS011;40364;52.270;10.546;2023-12-14T12:41:05;11.13;;;5.72;;
54454;SDS011;40364;52.270;10.546;2023-12-14T12:43:32;10.50;;;5.35;;
54454;SDS011;40364;52.270;10.546;2023-12-14T12:45:58;14.27;;;5.68;;
54454;SDS011;40364;52.270;10.546;2023-12-14T12:48:25;10.40;;;5.38;;
54454;SDS011;40364;52.270;10.546;2023-12-14T12:50:52;13.13;;;4.75;;
54454;SDS011;40364;52.270;10.546;2023-12-14T12:53:20;13.63;;;5.25;;
54454;SDS011;40364;52.270;10.546;2023-12-14T12:55:47;19.15;;;6.05;;
54454;SDS011;40364;52.270;10.546;2023-12-14T12:58:14;10.50;;;4.82;;
54454;SDS011;40364;52.270;10.546;2023-12-14T13:00:40;11.27;;;5.15;;
54454;SDS011;40364;52.270;10.546;2023-12-14T13:03:07;10.82;;;5.03;;
54454;SDS011;40364;52.270;10.546;2023-12-14T13:05:35;15.68;;;5.25;;
54454;SDS011;40364;52.270;10.546;2023-12-14T13:08:01;9.77;;;4.93;;
54454;SDS011;40364;52.270;10.546;2023-12-14T13:10:29;9.90;;;5.00;;
54454;SDS011;40364;52.270;10.546;2023-12-14T13:12:56;10.65;;;4.80;;
54454;SDS011;40364;52.270;10.546;2023-12-14T13:15:23;9.43;;;4.00;;
54454;SDS011;40364;52.270;10.546;2023-12-14T13:17:50;7.53;;;4.20;;
54454;SDS011;40364;52.270;10.546;2023-12-14T13:20:17;10.65;;;4.45;;
54454;SDS011;40364;52.270;10.546;2023-12-14T13:22:44;10.80;;;4.70;;
54454;SDS011;40364;52.270;10.546;2023-12-14T13:25:11;10.82;;;4.97;;
54454;SDS011;40364;52.270;10.546;2023-12-14T13:27:39;9.95;;;4.03;;
54454;SDS011;40364;52.270;10.546;2023-12-14T13:30:06;8.85;;;3.58;;
54454;SDS011;40364;52.270;10.546;2023-12-14T13:32:36;10.68;;;4.20;;
54454;SDS011;40364;52.270;10.546;2023-12-14T13:35:03;8.77;;;4.00;;
54454;SDS011;40364;52.270;10.546;2023-12-14T13:37:30;10.93;;;4.70;;
54454;SDS011;40364;52.270;10.546;2023-12-14T13:39:57;9.45;;;4.47;;
54454;SDS011;40364;52.270;10.546;2023-12-14T13:42:24;10.05;;;4.40;;
54454;SDS011;40364;52.270;10.546;2023-12-14T13:44:52;8.45;;;4.30;;
54454;SDS011;40364;52.270;10.546;2023-12-14T13:47:19;14.13;;;4.53;;
54454;SDS011;40364;52.270;10.546;2023-12-14T13:49:46;9.27;;;3.97;;
54454;SDS011;40364;52.270;10.546;2023-12-14T13:52:13;10.40;;;4.03;;
54454;SDS011;40364;52.270;10.546;2023-12-14T13:54:39;9.18;;;3.90;;
54454;SDS011;40364;52.270;10.546;2023-12-14T13:57:06;6.72;;;3.15;;
54454;SDS011;40364;52.270;10.546;2023-12-14T13:59:33;5.72;;;3.40;;
54454;SDS011;40364;52.270;10.546;2023-12-14T14:02:01;9.75;;;4.03;;
54454;SDS011;40364;52.270;10.546;2023-12-14T14:04:28;6.65;;;3.92;;
54454;SDS011;40364;52.270;10.546;2023-12-14T14:06:54;7.60;;;4.00;;
54454;SDS011;40364;52.270;10.546;2023-12-14T14:09:21;10.40;;;3.60;;
54454;SDS011;40364;52.270;10.546;2023-12-14T14:11:48;7.97;;;3.28;;
54454;SDS011;40364;52.270;10.546;2023-12-14T14:14:16;8.95;;;3.58;;
54454;SDS011;40364;52.270;10.546;2023-12-14T14:16:42;10.48;;;3.83;;
54454;SDS011;40364;52.270;10.546;2023-12-14T14:19:10;10.32;;;3.45;;
54454;SDS011;40364;52.270;10.546;2023-12-14T14:21:37;11.20;;;4.20;;
54454;SDS011;40364;52.270;10.546;2023-12-14T14:24:04;8.68;;;4.07;;
54454;SDS011;40364;52.270;10.546;2023-12-14T14:26:31;11.15;;;4.50;;
54454;SDS011;40364;52.270;10.546;2023-12-14T14:28:58;11.45;;;4.97;;
54454;SDS011;40364;52.270;10.546;2023-12-14T14:31:27;8.95;;;4.30;;
54454;SDS011;40364;52.270;10.546;2023-12-14T14:33:57;9.02;;;4.15;;
54454;SDS011;40364;52.270;10.546;2023-12-14T14:36:25;9.57;;;5.32;;
54454;SDS011;40364;52.270;10.546;2023-12-14T14:38:52;13.45;;;5.65;;